createdAt,value
2023-01-01T00:00:44.431Z,100618.19
2023-01-01T00:03:11.479Z,100609.84
2023-01-01T00:05:39.310Z,100621.47
2023-01-01T00:08:07.034Z,100628.81
2023-01-01T00:10:34.118Z,100621.78
2023-01-01T00:13:01.528Z,100634.44
2023-01-01T00:15:28.694Z,100614.16
2023-01-01T00:17:56.250Z,100649.91
2023-01-01T00:20:23.492Z,100633.13
2023-01-01T00:22:55.466Z,100642.34
2023-01-01T00:25:24.805Z,100633.13
2023-01-01T00:27:51.933Z,100636.94
2023-01-01T00:30:19.237Z,100637.22
2023-01-01T00:32:55.678Z,100658.88
2023-01-01T00:35:27.693Z,100644.47
2023-01-01T00:37:55.417Z,100670.22
2023-01-01T00:40:23.439Z,100644.25
2023-01-01T00:42:50.682Z,100648.56
2023-01-01T00:45:21.777Z,100665.09
2023-01-01T00:47:52.131Z,100647.75
2023-01-01T00:50:20.847Z,100643.44
2023-01-01T00:52:49.111Z,100643.72
2023-01-01T00:55:16.220Z,100651.78
2023-01-01T00:57:43.224Z,100649.91
2023-01-01T01:00:11.385Z,100658.31
2023-01-01T01:02:38.907Z,100657.78
2023-01-01T01:05:07.015Z,100659.63
2023-01-01T01:07:36.755Z,100658.81
2023-01-01T01:10:04.362Z,100669.09
2023-01-01T01:12:31.412Z,100663.16
2023-01-01T01:14:58.327Z,100672.34
2023-01-01T01:17:25.529Z,100660.69
2023-01-01T01:19:52.545Z,100670.97
2023-01-01T01:22:24.242Z,100674.47
2023-01-01T01:24:55.286Z,100657.13
2023-01-01T01:27:22.173Z,100650.69
2023-01-01T01:29:49.002Z,100664.22
2023-01-01T01:32:15.953Z,100655.81
2023-01-01T01:34:42.844Z,100659.88
2023-01-01T01:37:10.127Z,100657.41
2023-01-01T01:39:37.001Z,100674.19
2023-01-01T01:42:04.367Z,100664.72
2023-01-01T01:44:46.989Z,100677.13
2023-01-01T01:47:36.134Z,100691.78
2023-01-01T01:50:30.057Z,100683.69
2023-01-01T01:53:16.765Z,100701.31
2023-01-01T01:55:52.153Z,100677.75
2023-01-01T01:58:19.638Z,100681.28
2023-01-01T02:00:46.779Z,100664.72
2023-01-01T02:03:46.712Z,100659.31
2023-01-01T02:06:14.278Z,100657.16
2023-01-01T02:08:41.219Z,100687.22
2023-01-01T02:11:08.064Z,100683.97
2023-01-01T02:13:38.992Z,100679.38
2023-01-01T02:16:39.736Z,100679.59
2023-01-01T02:19:44.122Z,100681.78
2023-01-01T02:22:36.271Z,100684.53
2023-01-01T02:25:28.928Z,100673.69
2023-01-01T02:28:07.764Z,100665.84
2023-01-01T02:30:37.063Z,100677.75
2023-01-01T02:33:12.122Z,100677.22
2023-01-01T02:35:55.635Z,100663.66
2023-01-01T02:38:44.922Z,100684.81
2023-01-01T02:41:21.802Z,100669.38
2023-01-01T02:43:49.029Z,100667.22
2023-01-01T02:48:48.696Z,100675.66
2023-01-01T02:51:51.428Z,100667.06
2023-01-01T02:54:28.856Z,100670.06
2023-01-01T02:57:31.985Z,100657.84
2023-01-01T03:00:17.424Z,100672.19
2023-01-01T03:02:52.933Z,100663.25
2023-01-01T03:06:01.658Z,100650.84
2023-01-01T03:08:41.881Z,100656.50
2023-01-01T03:11:13.634Z,100666.25
2023-01-01T03:13:55.519Z,100674.09
2023-01-01T03:16:35.320Z,100674.88
2023-01-01T03:19:37.863Z,100680.34
2023-01-01T03:22:10.204Z,100668.44
2023-01-01T03:25:09.398Z,100675.19
2023-01-01T03:27:50.725Z,100676.78
2023-01-01T03:30:20.302Z,100684.97
2023-01-01T03:33:03.480Z,100665.19
2023-01-01T03:35:47.549Z,100661.69
2023-01-01T03:38:26.297Z,100671.47
2023-01-01T03:41:00.663Z,100659.59
2023-01-01T03:43:41.392Z,100665.53
2023-01-01T03:46:10.630Z,100655.00
2023-01-01T03:49:02.601Z,100671.56
2023-01-01T03:52:00.696Z,100664.53
2023-01-01T03:55:06.536Z,100671.06
2023-01-01T03:57:54.655Z,100695.47
2023-01-01T04:00:32.554Z,100689.78
2023-01-01T04:03:08.077Z,100696.03
2023-01-01T04:05:41.943Z,100689.81
2023-01-01T04:08:10.624Z,100684.22
2023-01-01T04:10:43.020Z,100696.94
2023-01-01T04:13:10.752Z,100704.53
2023-01-01T04:15:37.725Z,100707.28
2023-01-01T04:18:05.382Z,100719.47
2023-01-01T04:20:32.895Z,100704.34
2023-01-01T04:23:01.416Z,100708.41
2023-01-01T04:25:29.453Z,100718.41
2023-01-01T04:27:58.261Z,100719.78
2023-01-01T04:30:26.839Z,100727.66
2023-01-01T04:32:55.560Z,100729.81
2023-01-01T04:35:22.757Z,100719.84
2023-01-01T04:37:49.634Z,100724.97
2023-01-01T04:40:17.473Z,100721.22
2023-01-01T04:42:44.423Z,100732.31
2023-01-01T04:45:14.887Z,100726.91
2023-01-01T04:47:42.136Z,100724.78
2023-01-01T04:50:09.771Z,100739.41
2023-01-01T04:52:37.007Z,100734.03
2023-01-01T04:55:04.389Z,100738.06
2023-01-01T04:57:32.564Z,100728.91
2023-01-01T04:59:59.452Z,100757.28
2023-01-01T05:02:26.896Z,100736.47
2023-01-01T05:04:54.085Z,100733.75
2023-01-01T05:07:20.971Z,100735.13
2023-01-01T05:09:47.956Z,100748.88
2023-01-01T05:12:15.134Z,100738.09
2023-01-01T05:14:42.221Z,100738.34
2023-01-01T05:17:09.046Z,100744.28
2023-01-01T05:19:36.173Z,100740.53
2023-01-01T05:22:10.219Z,100747.28
2023-01-01T05:24:38.076Z,100747.00
2023-01-01T05:27:05.890Z,100742.44
2023-01-01T05:29:32.763Z,100745.69
2023-01-01T05:32:00.314Z,100754.88
2023-01-01T05:34:27.605Z,100757.84
2023-01-01T05:36:54.971Z,100766.81
2023-01-01T05:39:21.814Z,100768.16
2023-01-01T05:41:48.791Z,100773.59
2023-01-01T05:44:17.382Z,100766.56
2023-01-01T05:46:44.340Z,100758.72
2023-01-01T05:49:12.846Z,100767.38
2023-01-01T05:54:06.571Z,100759.56
2023-01-01T05:56:33.443Z,100757.16
2023-01-01T05:59:01.661Z,100767.44
2023-01-01T06:01:30.836Z,100772.84
2023-01-01T06:03:59.533Z,100772.84
2023-01-01T06:06:30.292Z,100760.72
2023-01-01T06:09:06.607Z,100771.78
2023-01-01T06:11:33.891Z,100763.44
2023-01-01T06:14:01.735Z,100760.19
2023-01-01T06:16:30.833Z,100762.06
2023-01-01T06:18:58.895Z,100767.22
2023-01-01T06:21:27.805Z,100778.84
2023-01-01T06:23:58.185Z,100768.31
2023-01-01T06:26:32.019Z,100765.84
2023-01-01T06:29:02.051Z,100779.63
2023-01-01T06:31:32.917Z,100797.22
2023-01-01T06:34:03.095Z,100792.88
2023-01-01T06:36:30.060Z,100796.13
2023-01-01T06:38:58.646Z,100800.19
2023-01-01T06:41:28.351Z,100805.56
2023-01-01T06:43:57.631Z,100791.50
2023-01-01T06:46:42.787Z,100793.13
2023-01-01T06:49:12.963Z,100814.47
2023-01-01T06:51:43.209Z,100815.28
2023-01-01T06:54:11.248Z,100811.22
2023-01-01T06:56:38.726Z,100817.44
2023-01-01T06:59:05.949Z,100819.03
2023-01-01T07:01:40.139Z,100806.06
2023-01-01T07:04:15.435Z,100816.63
2023-01-01T07:06:43.125Z,100804.19
2023-01-01T07:09:10.147Z,100817.69
2023-01-01T07:11:37.129Z,100819.59
2023-01-01T07:14:04.610Z,100820.94
2023-01-01T07:16:31.753Z,100828.22
2023-01-01T07:18:59.113Z,100837.97
2023-01-01T07:21:55.064Z,100831.47
2023-01-01T07:24:22.465Z,100830.66
2023-01-01T07:26:50.136Z,100844.72
2023-01-01T07:29:17.430Z,100857.41
2023-01-01T07:31:45.636Z,100862.53
2023-01-01T07:34:19.075Z,100854.97
2023-01-01T07:36:46.421Z,100862.53
2023-01-01T07:39:13.647Z,100858.75
2023-01-01T07:41:40.804Z,100869.56
2023-01-01T07:44:07.785Z,100873.34
2023-01-01T07:46:36.799Z,100876.84
2023-01-01T07:49:04.396Z,100853.59
2023-01-01T07:51:31.459Z,100856.59
2023-01-01T07:54:05.815Z,100884.69
2023-01-01T07:56:35.653Z,100896.31
2023-01-01T07:59:02.655Z,100883.06
2023-01-01T08:01:29.837Z,100904.94
2023-01-01T08:03:56.980Z,100894.66
2023-01-01T08:06:23.956Z,100899.25
2023-01-01T08:08:51.622Z,100887.38
2023-01-01T08:11:18.556Z,100892.75
2023-01-01T08:13:46.046Z,100894.91
2023-01-01T08:16:13.087Z,100902.47
2023-01-01T08:18:40.017Z,100891.66
2023-01-01T08:21:08.728Z,100897.59
2023-01-01T08:23:35.847Z,100898.38
2023-01-01T08:26:03.436Z,100907.28
2023-01-01T08:28:31.067Z,100909.22
2023-01-01T08:30:59.505Z,100901.09
2023-01-01T08:33:29.518Z,100895.94
2023-01-01T08:35:56.819Z,100913.22
2023-01-01T08:38:23.801Z,100917.03
2023-01-01T08:40:50.718Z,100936.78
2023-01-01T08:43:17.882Z,100917.31
2023-01-01T08:45:45.754Z,100942.19
2023-01-01T08:48:12.597Z,100923.22
2023-01-01T08:50:39.638Z,100918.63
2023-01-01T08:53:06.594Z,100936.47
2023-01-01T08:55:33.496Z,100926.44
2023-01-01T08:58:00.354Z,100929.97
2023-01-01T09:00:27.488Z,100933.72
2023-01-01T09:02:55.077Z,100930.50
2023-01-01T09:05:22.113Z,100981.34
2023-01-01T09:07:49.162Z,100949.41
2023-01-01T09:10:16.270Z,100963.47
2023-01-01T09:12:43.171Z,100944.53
2023-01-01T09:15:17.195Z,100947.78
2023-01-01T09:17:44.214Z,100958.06
2023-01-01T09:20:11.421Z,100975.66
2023-01-01T09:22:38.286Z,100958.59
2023-01-01T09:25:05.888Z,100965.91
2023-01-01T09:27:32.778Z,100999.72
2023-01-01T09:30:00.177Z,100991.59
2023-01-01T09:32:29.878Z,100995.91
2023-01-01T09:34:57.486Z,100986.72
2023-01-01T09:37:24.609Z,100992.97
2023-01-01T09:39:51.568Z,100983.72
2023-01-01T09:42:40.611Z,100984.81
2023-01-01T09:45:30.854Z,100986.44
2023-01-01T09:48:07.184Z,100993.75
2023-01-01T09:50:40.447Z,100987.00
2023-01-01T09:53:48.851Z,100979.41
2023-01-01T09:56:23.101Z,100995.91
2023-01-01T09:58:50.206Z,101007.28
2023-01-01T10:01:41.208Z,101000.50
2023-01-01T10:04:49.089Z,100988.56
2023-01-01T10:07:29.566Z,100999.13
2023-01-01T10:10:20.981Z,100989.31
2023-01-01T10:13:07.273Z,101009.31
2023-01-01T10:15:40.793Z,100991.94
2023-01-01T10:18:19.936Z,100998.13
2023-01-01T10:21:18.496Z,101012.72
2023-01-01T10:24:22.263Z,101001.63
2023-01-01T10:26:50.953Z,100994.59
2023-01-01T10:29:33.753Z,101022.97
2023-01-01T10:32:21.499Z,101020.56
2023-01-01T10:34:50.571Z,101031.41
2023-01-01T10:37:18.100Z,101048.75
2023-01-01T10:39:47.127Z,101039.81
2023-01-01T10:42:15.715Z,101026.28
2023-01-01T10:44:43.689Z,101039.00
2023-01-01T10:47:29.578Z,101048.19
2023-01-01T10:50:05.258Z,101043.00
2023-01-01T10:52:40.548Z,101044.91
2023-01-01T10:55:21.211Z,101052.25
2023-01-01T10:57:48.303Z,101036.28
2023-01-01T11:00:25.000Z,101047.13
2023-01-01T11:03:22.090Z,101013.50
2023-01-01T11:06:02.679Z,101027.63
2023-01-01T11:08:32.205Z,101054.16
2023-01-01T11:11:01.475Z,101045.25
2023-01-01T11:13:30.386Z,101057.72
2023-01-01T11:15:57.950Z,101053.63
2023-01-01T11:18:35.908Z,101060.66
2023-01-01T11:21:06.020Z,101060.63
2023-01-01T11:23:39.674Z,101072.81
2023-01-01T11:26:12.620Z,101077.44
2023-01-01T11:28:41.327Z,101068.53
2023-01-01T11:31:20.065Z,101073.94
2023-01-01T11:33:53.831Z,101083.44
2023-01-01T11:36:33.712Z,101086.69
2023-01-01T11:39:26.713Z,101091.03
2023-01-01T11:41:56.923Z,101089.94
2023-01-01T11:44:43.912Z,101077.50
2023-01-01T11:47:38.298Z,101072.06
2023-01-01T11:50:14.437Z,101045.78
2023-01-01T11:52:50.209Z,101064.75
2023-01-01T11:55:37.850Z,101043.56
2023-01-01T11:58:19.803Z,101076.59
2023-01-01T12:00:53.207Z,101078.22
2023-01-01T12:03:45.215Z,101078.47
2023-01-01T12:06:27.685Z,101074.09
2023-01-01T12:09:26.191Z,101077.63
2023-01-01T12:12:05.258Z,101077.88
2023-01-01T12:15:24.823Z,101076.53
2023-01-01T12:18:26.070Z,101080.06
2023-01-01T12:21:09.874Z,101087.91
2023-01-01T12:23:37.391Z,101091.19
2023-01-01T12:26:58.309Z,101088.47
2023-01-01T12:30:13.038Z,101092.53
2023-01-01T12:33:21.224Z,101085.19
2023-01-01T12:36:06.378Z,101085.22
2023-01-01T12:38:51.293Z,101079.78
2023-01-01T12:41:33.809Z,101067.59
2023-01-01T12:44:31.828Z,101076.53
2023-01-01T12:47:20.582Z,101074.34
2023-01-01T12:50:12.189Z,101072.19
2023-01-01T12:53:21.080Z,101063.81
2023-01-01T12:55:50.942Z,101068.44
2023-01-01T12:58:33.274Z,101061.44
2023-01-01T13:01:21.210Z,101063.84
2023-01-01T13:03:51.914Z,101082.53
2023-01-01T13:06:31.363Z,101077.16
2023-01-01T13:09:08.224Z,101080.94
2023-01-01T13:11:41.250Z,101079.34
2023-01-01T13:14:11.932Z,101072.84
2023-01-01T13:16:41.878Z,101081.00
2023-01-01T13:19:41.050Z,101073.44
2023-01-01T13:22:26.278Z,101098.09
2023-01-01T13:25:13.897Z,101100.84
2023-01-01T13:28:05.122Z,101106.25
2023-01-01T13:30:38.727Z,101097.06
2023-01-01T13:33:26.891Z,101125.75
2023-01-01T13:36:09.712Z,101112.78
2023-01-01T13:38:59.498Z,101126.59
2023-01-01T13:41:26.674Z,101135.28
2023-01-01T13:43:59.583Z,101133.94
2023-01-01T13:46:42.150Z,101136.91
2023-01-01T13:50:00.701Z,101145.31
2023-01-01T13:53:21.704Z,101148.59
2023-01-01T13:56:34.750Z,101156.16
2023-01-01T13:59:58.981Z,101164.03
2023-01-01T14:02:40.977Z,101177.31
2023-01-01T14:05:28.050Z,101168.09
2023-01-01T14:07:55.771Z,101180.25
2023-01-01T14:10:31.528Z,101183.25
2023-01-01T14:13:18.139Z,101188.38
2023-01-01T14:15:57.209Z,101193.53
2023-01-01T14:18:52.479Z,101196.25
2023-01-01T14:21:26.855Z,101197.88
2023-01-01T14:24:01.244Z,101194.63
2023-01-01T14:26:30.696Z,101187.59
2023-01-01T14:29:00.399Z,101181.09
2023-01-01T14:31:31.434Z,101181.63
2023-01-01T14:33:59.155Z,101190.81
2023-01-01T14:36:31.515Z,101189.22
2023-01-01T14:39:00.908Z,101187.31
2023-01-01T14:41:38.016Z,101190.03
2023-01-01T14:44:13.947Z,101182.97
2023-01-01T14:46:53.345Z,101199.22
2023-01-01T14:49:36.823Z,101193.75
2023-01-01T14:52:12.237Z,101200.50
2023-01-01T14:54:44.814Z,101211.59
2023-01-01T14:57:33.810Z,101220.53
2023-01-01T15:00:00.973Z,101224.56
2023-01-01T15:02:31.757Z,101230.25
2023-01-01T15:05:14.568Z,101227.28
2023-01-01T15:07:41.484Z,101224.28
2023-01-01T15:10:13.156Z,101223.47
2023-01-01T15:12:42.229Z,101218.31
2023-01-01T15:15:43.825Z,101237.25
2023-01-01T15:18:40.834Z,101239.13
2023-01-01T15:21:38.751Z,101239.88
2023-01-01T15:24:17.551Z,101240.94
2023-01-01T15:26:53.623Z,101246.06
2023-01-01T15:29:39.070Z,101249.56
2023-01-01T15:32:13.849Z,101266.84
2023-01-01T15:34:49.539Z,101276.56
2023-01-01T15:37:20.059Z,101260.88
2023-01-01T15:40:01.868Z,101278.16
2023-01-01T15:42:38.554Z,101271.13
2023-01-01T15:45:33.818Z,101269.25
2023-01-01T15:48:06.660Z,101273.81
2023-01-01T15:50:43.943Z,101279.75
2023-01-01T15:53:15.476Z,101278.66
2023-01-01T15:55:46.931Z,101278.91
2023-01-01T15:58:24.082Z,101296.44
2023-01-01T16:01:02.008Z,101300.19
2023-01-01T16:03:32.155Z,101295.84
2023-01-01T16:06:00.462Z,101296.38
2023-01-01T16:08:27.856Z,101292.28
2023-01-01T16:10:54.861Z,101293.34
2023-01-01T16:13:21.983Z,101305.75
2023-01-01T16:15:54.145Z,101309.78
2023-01-01T16:18:35.202Z,101312.69
2023-01-01T16:21:04.110Z,101301.09
2023-01-01T16:23:31.834Z,101304.28
2023-01-01T16:25:58.899Z,101289.69
2023-01-01T16:28:25.823Z,101294.78
2023-01-01T16:30:53.221Z,101286.13
2023-01-01T16:33:22.805Z,101291.78
2023-01-01T16:35:51.173Z,101298.78
2023-01-01T16:38:18.604Z,101300.91
2023-01-01T16:40:45.692Z,101308.69
2023-01-01T16:43:17.933Z,101303.56
2023-01-01T16:45:45.630Z,101305.66
2023-01-01T16:48:12.744Z,101304.53
2023-01-01T16:50:39.704Z,101298.28
2023-01-01T16:53:06.670Z,101303.13
2023-01-01T16:55:33.577Z,101296.88
2023-01-01T16:58:37.990Z,101307.41
2023-01-01T17:00:48.105Z,101319.19
2023-01-01T17:03:15.385Z,101312.69
2023-01-01T17:05:44.677Z,101324.59
2023-01-01T17:08:11.975Z,101327.81
2023-01-01T17:10:39.141Z,101337.78
2023-01-01T17:13:06.227Z,101331.00
2023-01-01T17:15:33.223Z,101330.19
2023-01-01T17:18:00.782Z,101335.59
2023-01-01T17:20:27.776Z,101339.34
2023-01-01T17:22:54.913Z,101335.53
2023-01-01T17:25:22.260Z,101341.44
2023-01-01T17:27:49.275Z,101341.44
2023-01-01T17:30:16.331Z,101344.41
2023-01-01T17:32:43.403Z,101354.94
2023-01-01T17:35:10.636Z,101335.44
2023-01-01T17:37:37.581Z,101336.00
2023-01-01T17:40:05.178Z,101337.31
2023-01-01T17:42:32.089Z,101337.31
2023-01-01T17:44:59.053Z,101339.44
2023-01-01T17:47:30.897Z,101332.13
2023-01-01T17:49:59.816Z,101333.44
2023-01-01T17:52:27.109Z,101346.38
2023-01-01T17:54:53.991Z,101336.34
2023-01-01T17:57:21.056Z,101333.59
2023-01-01T17:59:48.074Z,101325.69
2023-01-01T18:02:15.454Z,101330.78
2023-01-01T18:04:42.557Z,101333.66
2023-01-01T18:07:09.423Z,101344.13
2023-01-01T18:09:38.339Z,101346.72
2023-01-01T18:12:06.129Z,101349.03
2023-01-01T18:14:33.103Z,101350.94
2023-01-01T18:17:00.277Z,101338.44
2023-01-01T18:19:27.708Z,101345.22
2023-01-01T18:21:55.142Z,101340.31
2023-01-01T18:24:22.043Z,101342.44
2023-01-01T18:26:49.251Z,101344.56
2023-01-01T18:29:16.224Z,101336.16
2023-01-01T18:31:44.057Z,101336.16
2023-01-01T18:34:11.468Z,101343.19
2023-01-01T18:36:39.327Z,101337.72
2023-01-01T18:39:30.927Z,101334.72
2023-01-01T18:42:21.505Z,101338.41
2023-01-01T18:44:48.761Z,101338.81
2023-01-01T18:47:18.915Z,101343.91
2023-01-01T18:49:59.702Z,101348.63
2023-01-01T18:52:28.718Z,101352.06
2023-01-01T18:55:18.037Z,101352.00
2023-01-01T18:57:50.123Z,101356.50
2023-01-01T19:00:26.760Z,101361.88
2023-01-01T19:03:04.352Z,101356.41
2023-01-01T19:05:34.925Z,101354.78
2023-01-01T19:08:22.907Z,101367.66
2023-01-01T19:10:56.805Z,101362.78
2023-01-01T19:13:42.207Z,101359.28
2023-01-01T19:16:12.211Z,101362.22
2023-01-01T19:18:45.299Z,101357.63
2023-01-01T19:21:12.164Z,101364.41
2023-01-01T19:24:00.652Z,101363.91
2023-01-01T19:26:36.651Z,101359.34
2023-01-01T19:29:19.205Z,101359.91
2023-01-01T19:31:52.877Z,101356.16
2023-01-01T19:34:20.033Z,101353.22
2023-01-01T19:36:47.557Z,101350.28
2023-01-01T19:39:15.573Z,101356.00
2023-01-01T19:41:47.273Z,101353.88
2023-01-01T19:44:17.295Z,101349.06
2023-01-01T19:46:47.113Z,101353.94
2023-01-01T19:49:14.076Z,101346.44
2023-01-01T19:51:41.056Z,101355.66
2023-01-01T19:54:07.950Z,101351.09
2023-01-01T19:56:35.881Z,101349.22
2023-01-01T19:59:03.203Z,101343.81
2023-01-01T20:01:30.246Z,101346.34
2023-01-01T20:03:58.874Z,101335.00
2023-01-01T20:06:27.005Z,101332.06
2023-01-01T20:08:54.783Z,101338.81
2023-01-01T20:11:22.136Z,101341.53
2023-01-01T20:13:49.047Z,101340.13
2023-01-01T20:16:16.107Z,101338.00
2023-01-01T20:18:43.136Z,101329.13
2023-01-01T20:21:28.324Z,101322.91
2023-01-01T20:23:56.647Z,101331.56
2023-01-01T20:26:25.701Z,101320.22
2023-01-01T20:29:11.213Z,101316.22
2023-01-01T20:31:38.482Z,101321.84
2023-01-01T20:34:05.403Z,101321.84
2023-01-01T20:36:50.775Z,101319.66
2023-01-01T20:39:17.703Z,101319.09
2023-01-01T20:41:44.653Z,101311.81
2023-01-01T20:44:11.693Z,101308.88
2023-01-01T20:46:38.695Z,101305.13
2023-01-01T20:49:05.989Z,101315.09
2023-01-01T20:51:33.314Z,101299.16
2023-01-01T20:54:00.768Z,101312.72
2023-01-01T20:56:27.722Z,101299.25
2023-01-01T20:58:59.587Z,101296.56
2023-01-01T21:01:31.917Z,101302.75
2023-01-01T21:03:58.977Z,101297.38
2023-01-01T21:06:26.057Z,101296.56
2023-01-01T21:08:53.271Z,101302.50
2023-01-01T21:11:21.243Z,101309.03
2023-01-01T21:13:49.243Z,101303.63
2023-01-01T21:16:23.492Z,101306.06
2023-01-01T21:18:51.029Z,101301.19
2023-01-01T21:21:23.165Z,101309.09
2023-01-01T21:23:51.679Z,101302.63
2023-01-01T21:26:27.476Z,101288.91
2023-01-01T21:28:54.980Z,101295.38
2023-01-01T21:31:22.526Z,101289.72
2023-01-01T21:33:49.497Z,101281.41
2023-01-01T21:36:19.855Z,101283.59
2023-01-01T21:38:49.169Z,101298.94
2023-01-01T21:41:23.473Z,101312.16
2023-01-01T21:43:55.214Z,101308.41
2023-01-01T21:46:31.431Z,101312.72
2023-01-01T21:49:03.578Z,101310.59
2023-01-01T21:51:42.172Z,101307.09
2023-01-01T21:54:21.385Z,101301.69
2023-01-01T21:57:13.487Z,101309.53
2023-01-01T21:59:43.912Z,101301.69
2023-01-01T22:02:10.779Z,101313.53
2023-01-01T22:04:49.310Z,101307.09
2023-01-01T22:10:33.208Z,101317.53
2023-01-01T22:13:00.980Z,101312.97
2023-01-01T22:15:42.028Z,101313.53
2023-01-01T22:18:11.652Z,101321.06
2023-01-01T22:20:43.271Z,101317.03
2023-01-01T22:23:19.252Z,101308.22
2023-01-01T22:25:47.639Z,101309.53
2023-01-01T22:28:23.586Z,101307.97
2023-01-01T22:30:55.570Z,101306.94
2023-01-01T22:33:35.487Z,101314.75
2023-01-01T22:36:03.030Z,101299.41
2023-01-01T22:38:33.592Z,101297.78
2023-01-01T22:41:01.369Z,101297.53
2023-01-01T22:43:34.902Z,101292.97
2023-01-01T22:46:28.760Z,101289.44
2023-01-01T22:49:05.183Z,101300.72
2023-01-01T22:51:42.962Z,101284.56
2023-01-01T22:54:09.908Z,101283.72
2023-01-01T22:56:36.754Z,101282.91
2023-01-01T22:59:04.234Z,101281.88
2023-01-01T23:01:31.320Z,101277.75
2023-01-01T23:03:58.340Z,101269.44
2023-01-01T23:06:26.010Z,101267.78
2023-01-01T23:08:53.848Z,101258.09
2023-01-01T23:11:21.468Z,101245.94
2023-01-01T23:14:10.270Z,101257.03
2023-01-01T23:16:37.620Z,101247.81
2023-01-01T23:19:05.438Z,101241.34
2023-01-01T23:21:34.469Z,101242.16
2023-01-01T23:24:04.646Z,101234.91
2023-01-01T23:26:31.829Z,101240.03
2023-01-01T23:28:58.708Z,101229.50
2023-01-01T23:31:27.576Z,101239.31
2023-01-01T23:33:56.390Z,101232.03
2023-01-01T23:36:25.747Z,101232.03
2023-01-01T23:38:53.799Z,101223.16
2023-01-01T23:41:22.716Z,101212.84
2023-01-01T23:43:50.273Z,101216.44
2023-01-01T23:46:18.897Z,101217.25
2023-01-01T23:48:47.780Z,101215.13
2023-01-01T23:51:17.109Z,101207.59
2023-01-01T23:53:44.230Z,101199.00
2023-01-01T23:56:11.752Z,101207.41
2023-01-01T23:58:39.031Z,101188.28
